sensor_id;sensor_type;location;lat;lon;timestamp;P1;durP1;ratioP1;P2;durP2;ratioP2
76903;SDS011;65865;51.698;-0.292;2023-02-28T00:01:38;2.42;;;0.77;;
76903;SDS011;65865;51.698;-0.292;2023-02-28T00:04:04;2.47;;;0.57;;
76903;SDS011;65865;51.698;-0.292;2023-02-28T00:06:30;2.70;;;0.88;;
76903;SDS011;65865;51.698;-0.292;2023-02-28T00:08:56;2.97;;;0.70;;
76903;SDS011;65865;51.698;-0.292;2023-02-28T00:11:22;1.55;;;0.65;;
76903;SDS011;65865;51.698;-0.292;2023-02-28T00:13:48;1.70;;;0.63;;
76903;SDS011;65865;51.698;-0.292;2023-02-28T00:16:16;1.92;;;0.57;;
76903;SDS011;65865;51.698;-0.292;2023-02-28T00:18:42;2.40;;;0.57;;
76903;SDS011;65865;51.698;-0.292;2023-02-28T00:21:08;1.88;;;0.70;;
76903;SDS011;65865;51.698;-0.292;2023-02-28T00:23:35;2.05;;;0.63;;
76903;SDS011;65865;51.698;-0.292;2023-02-28T00:26:01;3.83;;;0.80;;
76903;SDS011;65865;51.698;-0.292;2023-02-28T00:28:27;3.20;;;0.70;;
76903;SDS011;65865;51.698;-0.292;2023-02-28T00:30:53;2.22;;;0.70;;
76903;SDS011;65865;51.698;-0.292;2023-02-28T00:33:19;1.65;;;0.60;;
76903;SDS011;65865;51.698;-0.292;2023-02-28T00:35:45;2.50;;;0.85;;
76903;SDS011;65865;51.698;-0.292;2023-02-28T00:38:12;3.05;;;0.68;;
76903;SDS011;65865;51.698;-0.292;2023-02-28T00:40:38;1.70;;;0.55;;
76903;SDS011;65865;51.698;-0.292;2023-02-28T00:43:04;2.95;;;0.63;;
76903;SDS011;65865;51.698;-0.292;2023-02-28T00:45:30;3.53;;;0.77;;
76903;SDS011;65865;51.698;-0.292;2023-02-28T00:47:56;2.53;;;0.68;;
76903;SDS011;65865;51.698;-0.292;2023-02-28T00:50:22;3.65;;;0.55;;
76903;SDS011;65865;51.698;-0.292;2023-02-28T00:52:48;2.05;;;0.60;;
76903;SDS011;65865;51.698;-0.292;2023-02-28T00:55:14;2.40;;;0.68;;
76903;SDS011;65865;51.698;-0.292;2023-02-28T00:57:40;1.75;;;0.70;;
76903;SDS011;65865;51.698;-0.292;2023-02-28T01:00:08;1.70;;;0.77;;
76903;SDS011;65865;51.698;-0.292;2023-02-28T01:02:34;2.60;;;0.70;;
76903;SDS011;65865;51.698;-0.292;2023-02-28T01:05:00;2.88;;;0.98;;
76903;SDS011;65865;51.698;-0.292;2023-02-28T01:07:26;3.78;;;0.90;;
76903;SDS011;65865;51.698;-0.292;2023-02-28T01:09:52;2.53;;;0.82;;
76903;SDS011;65865;51.698;-0.292;2023-02-28T01:12:18;2.33;;;0.70;;
76903;SDS011;65865;51.698;-0.292;2023-02-28T01:14:44;2.05;;;0.70;;
76903;SDS011;65865;51.698;-0.292;2023-02-28T01:17:10;3.70;;;1.10;;
76903;SDS011;65865;51.698;-0.292;2023-02-28T01:19:36;2.50;;;0.80;;
76903;SDS011;65865;51.698;-0.292;2023-02-28T01:22:03;2.30;;;0.77;;
76903;SDS011;65865;51.698;-0.292;2023-02-28T01:24:29;2.55;;;0.70;;
76903;SDS011;65865;51.698;-0.292;2023-02-28T01:26:54;3.50;;;1.00;;
76903;SDS011;65865;51.698;-0.292;2023-02-28T01:29:20;2.85;;;0.82;;
76903;SDS011;65865;51.698;-0.292;2023-02-28T01:31:52;3.42;;;0.88;;
76903;SDS011;65865;51.698;-0.292;2023-02-28T01:34:18;2.65;;;0.70;;
76903;SDS011;65865;51.698;-0.292;2023-02-28T01:36:44;2.67;;;0.85;;
76903;SDS011;65865;51.698;-0.292;2023-02-28T01:39:10;2.53;;;0.80;;
76903;SDS011;65865;51.698;-0.292;2023-02-28T01:41:37;2.55;;;0.80;;
76903;SDS011;65865;51.698;-0.292;2023-02-28T01:44:04;2.53;;;0.90;;
76903;SDS011;65865;51.698;-0.292;2023-02-28T01:46:31;3.13;;;1.08;;
76903;SDS011;65865;51.698;-0.292;2023-02-28T01:51:34;2.22;;;0.60;;
76903;SDS011;65865;51.698;-0.292;2023-02-28T01:54:02;3.22;;;0.80;;
76903;SDS011;65865;51.698;-0.292;2023-02-28T01:56:30;3.72;;;0.88;;
76903;SDS011;65865;51.698;-0.292;2023-02-28T01:58:58;2.78;;;0.80;;
76903;SDS011;65865;51.698;-0.292;2023-02-28T02:01:25;2.35;;;0.70;;
76903;SDS011;65865;51.698;-0.292;2023-02-28T02:03:54;3.50;;;0.80;;
76903;SDS011;65865;51.698;-0.292;2023-02-28T02:06:22;2.28;;;0.63;;
76903;SDS011;65865;51.698;-0.292;2023-02-28T02:08:48;1.65;;;0.70;;
76903;SDS011;65865;51.698;-0.292;2023-02-28T02:11:15;2.60;;;0.90;;
76903;SDS011;65865;51.698;-0.292;2023-02-28T02:14:06;2.22;;;0.70;;
76903;SDS011;65865;51.698;-0.292;2023-02-28T02:16:48;3.33;;;0.70;;
76903;SDS011;65865;51.698;-0.292;2023-02-28T02:25:21;2.65;;;0.68;;
76903;SDS011;65865;51.698;-0.292;2023-02-28T02:33:04;1.73;;;0.60;;
76903;SDS011;65865;51.698;-0.292;2023-02-28T02:35:40;2.25;;;0.93;;
76903;SDS011;65865;51.698;-0.292;2023-02-28T02:38:10;3.15;;;1.02;;
76903;SDS011;65865;51.698;-0.292;2023-02-28T02:40:43;2.15;;;0.70;;
76903;SDS011;65865;51.698;-0.292;2023-02-28T02:43:16;2.60;;;0.68;;
76903;SDS011;65865;51.698;-0.292;2023-02-28T02:45:50;2.20;;;0.50;;
76903;SDS011;65865;51.698;-0.292;2023-02-28T02:48:19;3.33;;;0.80;;
76903;SDS011;65865;51.698;-0.292;2023-02-28T02:50:48;2.17;;;0.70;;
76903;SDS011;65865;51.698;-0.292;2023-02-28T02:53:15;2.58;;;0.75;;
76903;SDS011;65865;51.698;-0.292;2023-02-28T02:55:43;2.33;;;0.85;;
76903;SDS011;65865;51.698;-0.292;2023-02-28T02:58:11;2.78;;;0.70;;
76903;SDS011;65865;51.698;-0.292;2023-02-28T03:00:46;2.60;;;0.80;;
76903;SDS011;65865;51.698;-0.292;2023-02-28T03:03:14;2.00;;;0.60;;
76903;SDS011;65865;51.698;-0.292;2023-02-28T03:05:45;2.72;;;0.70;;
76903;SDS011;65865;51.698;-0.292;2023-02-28T03:08:12;3.25;;;0.90;;
76903;SDS011;65865;51.698;-0.292;2023-02-28T03:10:43;3.22;;;0.70;;
76903;SDS011;65865;51.698;-0.292;2023-02-28T03:18:29;2.75;;;0.60;;
76903;SDS011;65865;51.698;-0.292;2023-02-28T03:23:42;2.28;;;0.60;;
76903;SDS011;65865;51.698;-0.292;2023-02-28T03:26:16;3.33;;;0.50;;
76903;SDS011;65865;51.698;-0.292;2023-02-28T03:31:48;3.47;;;0.90;;
76903;SDS011;65865;51.698;-0.292;2023-02-28T03:34:26;3.03;;;0.70;;
76903;SDS011;65865;51.698;-0.292;2023-02-28T03:36:55;2.95;;;0.68;;
76903;SDS011;65865;51.698;-0.292;2023-02-28T03:39:44;2.15;;;0.70;;
76903;SDS011;65865;51.698;-0.292;2023-02-28T03:42:11;2.03;;;0.73;;
76903;SDS011;65865;51.698;-0.292;2023-02-28T03:44:43;2.58;;;0.70;;
76903;SDS011;65865;51.698;-0.292;2023-02-28T03:47:15;2.97;;;0.93;;
76903;SDS011;65865;51.698;-0.292;2023-02-28T03:49:46;1.75;;;0.60;;
76903;SDS011;65865;51.698;-0.292;2023-02-28T03:52:14;2.70;;;0.88;;
76903;SDS011;65865;51.698;-0.292;2023-02-28T03:54:44;1.92;;;0.77;;
76903;SDS011;65865;51.698;-0.292;2023-02-28T03:59:38;2.40;;;0.63;;
76903;SDS011;65865;51.698;-0.292;2023-02-28T04:02:06;2.33;;;0.50;;
76903;SDS011;65865;51.698;-0.292;2023-02-28T04:04:33;2.78;;;0.60;;
76903;SDS011;65865;51.698;-0.292;2023-02-28T04:07:07;1.58;;;0.60;;
76903;SDS011;65865;51.698;-0.292;2023-02-28T04:09:33;2.08;;;0.63;;
76903;SDS011;65865;51.698;-0.292;2023-02-28T04:11:59;2.15;;;0.63;;
76903;SDS011;65865;51.698;-0.292;2023-02-28T04:14:25;2.17;;;0.63;;
76903;SDS011;65865;51.698;-0.292;2023-02-28T04:16:51;2.25;;;0.70;;
76903;SDS011;65865;51.698;-0.292;2023-02-28T04:19:18;2.67;;;0.50;;
76903;SDS011;65865;51.698;-0.292;2023-02-28T04:21:45;2.53;;;0.60;;
76903;SDS011;65865;51.698;-0.292;2023-02-28T04:24:15;1.30;;;0.50;;
76903;SDS011;65865;51.698;-0.292;2023-02-28T04:26:42;1.90;;;0.40;;
76903;SDS011;65865;51.698;-0.292;2023-02-28T04:29:09;2.55;;;0.70;;
76903;SDS011;65865;51.698;-0.292;2023-02-28T04:31:35;2.28;;;0.95;;
76903;SDS011;65865;51.698;-0.292;2023-02-28T04:34:01;2.92;;;0.60;;
76903;SDS011;65865;51.698;-0.292;2023-02-28T04:36:27;1.35;;;0.43;;
76903;SDS011;65865;51.698;-0.292;2023-02-28T04:38:54;2.53;;;0.57;;
76903;SDS011;65865;51.698;-0.292;2023-02-28T04:41:21;1.83;;;0.77;;
76903;SDS011;65865;51.698;-0.292;2023-02-28T04:43:47;1.33;;;0.43;;
76903;SDS011;65865;51.698;-0.292;2023-02-28T04:46:14;2.30;;;0.60;;
76903;SDS011;65865;51.698;-0.292;2023-02-28T04:48:41;1.75;;;0.50;;
76903;SDS011;65865;51.698;-0.292;2023-02-28T04:51:10;3.13;;;0.75;;
76903;SDS011;65865;51.698;-0.292;2023-02-28T04:53:37;1.60;;;0.60;;
76903;SDS011;65865;51.698;-0.292;2023-02-28T04:56:04;2.33;;;0.50;;
76903;SDS011;65865;51.698;-0.292;2023-02-28T04:58:31;1.77;;;0.60;;
76903;SDS011;65865;51.698;-0.292;2023-02-28T05:01:05;1.42;;;0.60;;
76903;SDS011;65865;51.698;-0.292;2023-02-28T05:03:37;2.42;;;0.60;;
76903;SDS011;65865;51.698;-0.292;2023-02-28T05:06:05;2.40;;;0.60;;
76903;SDS011;65865;51.698;-0.292;2023-02-28T05:08:31;2.10;;;0.60;;
76903;SDS011;65865;51.698;-0.292;2023-02-28T05:10:57;2.05;;;0.65;;
76903;SDS011;65865;51.698;-0.292;2023-02-28T05:13:25;1.15;;;0.55;;
76903;SDS011;65865;51.698;-0.292;2023-02-28T05:15:53;2.03;;;0.63;;
76903;SDS011;65865;51.698;-0.292;2023-02-28T05:18:19;1.60;;;0.40;;
76903;SDS011;65865;51.698;-0.292;2023-02-28T05:20:46;2.05;;;0.80;;
76903;SDS011;65865;51.698;-0.292;2023-02-28T05:23:15;1.83;;;0.60;;
76903;SDS011;65865;51.698;-0.292;2023-02-28T05:25:43;2.17;;;0.70;;
76903;SDS011;65865;51.698;-0.292;2023-02-28T05:28:09;2.78;;;0.60;;
76903;SDS011;65865;51.698;-0.292;2023-02-28T05:30:35;2.45;;;0.60;;
76903;SDS011;65865;51.698;-0.292;2023-02-28T05:33:02;2.65;;;0.63;;
76903;SDS011;65865;51.698;-0.292;2023-02-28T05:35:29;1.55;;;0.60;;
76903;SDS011;65865;51.698;-0.292;2023-02-28T05:37:55;2.15;;;0.50;;
76903;SDS011;65865;51.698;-0.292;2023-02-28T05:40:21;1.08;;;0.40;;
76903;SDS011;65865;51.698;-0.292;2023-02-28T05:42:47;2.17;;;0.55;;
76903;SDS011;65865;51.698;-0.292;2023-02-28T05:45:13;2.38;;;0.52;;
76903;SDS011;65865;51.698;-0.292;2023-02-28T05:47:39;1.58;;;0.60;;
76903;SDS011;65865;51.698;-0.292;2023-02-28T05:50:05;1.98;;;0.50;;
76903;SDS011;65865;51.698;-0.292;2023-02-28T05:52:31;1.83;;;0.52;;
76903;SDS011;65865;51.698;-0.292;2023-02-28T05:54:57;2.15;;;0.50;;
76903;SDS011;65865;51.698;-0.292;2023-02-28T05:57:23;1.50;;;0.50;;
76903;SDS011;65865;51.698;-0.292;2023-02-28T05:59:49;2.22;;;0.60;;
76903;SDS011;65865;51.698;-0.292;2023-02-28T06:02:16;1.70;;;0.50;;
76903;SDS011;65865;51.698;-0.292;2023-02-28T06:04:42;2.80;;;0.88;;
76903;SDS011;65865;51.698;-0.292;2023-02-28T06:07:09;1.60;;;0.60;;
76903;SDS011;65865;51.698;-0.292;2023-02-28T06:09:35;2.63;;;0.82;;
76903;SDS011;65865;51.698;-0.292;2023-02-28T06:12:02;1.33;;;0.55;;
76903;SDS011;65865;51.698;-0.292;2023-02-28T06:14:30;2.10;;;0.60;;
76903;SDS011;65865;51.698;-0.292;2023-02-28T06:16:56;2.00;;;0.75;;
76903;SDS011;65865;51.698;-0.292;2023-02-28T06:19:22;1.52;;;0.47;;
76903;SDS011;65865;51.698;-0.292;2023-02-28T06:21:50;1.60;;;0.70;;
76903;SDS011;65865;51.698;-0.292;2023-02-28T06:24:18;1.70;;;0.57;;
76903;SDS011;65865;51.698;-0.292;2023-02-28T06:26:44;1.77;;;0.70;;
76903;SDS011;65865;51.698;-0.292;2023-02-28T06:29:10;2.03;;;0.50;;
76903;SDS011;65865;51.698;-0.292;2023-02-28T06:31:36;1.38;;;0.63;;
76903;SDS011;65865;51.698;-0.292;2023-02-28T06:34:03;1.35;;;0.57;;
76903;SDS011;65865;51.698;-0.292;2023-02-28T06:36:29;2.15;;;0.57;;
76903;SDS011;65865;51.698;-0.292;2023-02-28T06:38:55;2.03;;;0.60;;
76903;SDS011;65865;51.698;-0.292;2023-02-28T06:41:22;3.25;;;0.57;;
76903;SDS011;65865;51.698;-0.292;2023-02-28T06:43:48;1.77;;;0.70;;
76903;SDS011;65865;51.698;-0.292;2023-02-28T06:46:14;2.42;;;0.73;;
76903;SDS011;65865;51.698;-0.292;2023-02-28T06:48:42;2.08;;;0.80;;
76903;SDS011;65865;51.698;-0.292;2023-02-28T06:51:10;1.67;;;0.60;;
76903;SDS011;65865;51.698;-0.292;2023-02-28T06:53:36;2.10;;;0.68;;
76903;SDS011;65865;51.698;-0.292;2023-02-28T06:56:04;1.90;;;0.50;;
76903;SDS011;65865;51.698;-0.292;2023-02-28T06:58:33;1.40;;;0.60;;
76903;SDS011;65865;51.698;-0.292;2023-02-28T07:00:59;2.17;;;0.52;;
76903;SDS011;65865;51.698;-0.292;2023-02-28T07:03:25;1.63;;;0.50;;
76903;SDS011;65865;51.698;-0.292;2023-02-28T07:05:51;1.85;;;0.63;;
76903;SDS011;65865;51.698;-0.292;2023-02-28T07:08:17;1.70;;;0.50;;
76903;SDS011;65865;51.698;-0.292;2023-02-28T07:10:43;1.58;;;0.55;;
76903;SDS011;65865;51.698;-0.292;2023-02-28T07:13:10;2.05;;;0.90;;
76903;SDS011;65865;51.698;-0.292;2023-02-28T07:15:37;1.98;;;0.60;;
76903;SDS011;65865;51.698;-0.292;2023-02-28T07:18:03;1.13;;;0.55;;
76903;SDS011;65865;51.698;-0.292;2023-02-28T07:20:29;2.35;;;0.68;;
76903;SDS011;65865;51.698;-0.292;2023-02-28T07:22:55;1.63;;;0.50;;
76903;SDS011;65865;51.698;-0.292;2023-02-28T07:25:22;1.92;;;0.73;;
76903;SDS011;65865;51.698;-0.292;2023-02-28T07:27:50;1.67;;;0.63;;
76903;SDS011;65865;51.698;-0.292;2023-02-28T07:30:16;1.85;;;0.55;;
76903;SDS011;65865;51.698;-0.292;2023-02-28T07:32:43;1.77;;;0.52;;
76903;SDS011;65865;51.698;-0.292;2023-02-28T07:35:12;1.75;;;0.57;;
76903;SDS011;65865;51.698;-0.292;2023-02-28T07:37:40;1.58;;;0.52;;
76903;SDS011;65865;51.698;-0.292;2023-02-28T07:40:07;2.22;;;0.60;;
76903;SDS011;65865;51.698;-0.292;2023-02-28T07:42:34;1.88;;;0.70;;
76903;SDS011;65865;51.698;-0.292;2023-02-28T07:45:00;2.53;;;0.70;;
76903;SDS011;65865;51.698;-0.292;2023-02-28T07:47:26;1.60;;;0.55;;
76903;SDS011;65865;51.698;-0.292;2023-02-28T07:49:52;1.90;;;0.50;;
76903;SDS011;65865;51.698;-0.292;2023-02-28T07:52:18;1.90;;;0.50;;
76903;SDS011;65865;51.698;-0.292;2023-02-28T07:54:44;2.22;;;0.77;;
76903;SDS011;65865;51.698;-0.292;2023-02-28T07:57:10;1.02;;;0.50;;
76903;SDS011;65865;51.698;-0.292;2023-02-28T07:59:36;2.50;;;0.40;;
76903;SDS011;65865;51.698;-0.292;2023-02-28T08:02:02;1.27;;;0.55;;
76903;SDS011;65865;51.698;-0.292;2023-02-28T08:04:31;1.85;;;0.50;;
76903;SDS011;65865;51.698;-0.292;2023-02-28T08:06:57;1.40;;;0.40;;
76903;SDS011;65865;51.698;-0.292;2023-02-28T08:09:23;0.80;;;0.30;;
76903;SDS011;65865;51.698;-0.292;2023-02-28T08:11:51;1.20;;;0.43;;
76903;SDS011;65865;51.698;-0.292;2023-02-28T08:14:17;1.95;;;0.60;;
76903;SDS011;65865;51.698;-0.292;2023-02-28T08:16:43;2.10;;;0.50;;
76903;SDS011;65865;51.698;-0.292;2023-02-28T08:19:09;1.15;;;0.32;;
76903;SDS011;65865;51.698;-0.292;2023-02-28T08:21:35;1.42;;;0.47;;
76903;SDS011;65865;51.698;-0.292;2023-02-28T08:24:01;1.33;;;0.50;;
76903;SDS011;65865;51.698;-0.292;2023-02-28T08:26:27;1.10;;;0.40;;
76903;SDS011;65865;51.698;-0.292;2023-02-28T08:28:53;1.33;;;0.50;;
76903;SDS011;65865;51.698;-0.292;2023-02-28T08:31:19;1.20;;;0.40;;
76903;SDS011;65865;51.698;-0.292;2023-02-28T08:33:45;1.65;;;0.40;;
76903;SDS011;65865;51.698;-0.292;2023-02-28T08:36:16;2.35;;;0.55;;
76903;SDS011;65865;51.698;-0.292;2023-02-28T08:38:42;1.00;;;0.38;;
76903;SDS011;65865;51.698;-0.292;2023-02-28T08:41:09;1.50;;;0.30;;
76903;SDS011;65865;51.698;-0.292;2023-02-28T08:43:36;1.92;;;0.40;;
76903;SDS011;65865;51.698;-0.292;2023-02-28T08:46:02;0.90;;;0.20;;
76903;SDS011;65865;51.698;-0.292;2023-02-28T08:48:30;0.88;;;0.30;;
76903;SDS011;65865;51.698;-0.292;2023-02-28T08:50:57;1.70;;;0.40;;
76903;SDS011;65865;51.698;-0.292;2023-02-28T08:53:23;0.77;;;0.30;;
76903;SDS011;65865;51.698;-0.292;2023-02-28T08:55:58;1.67;;;0.32;;
76903;SDS011;65865;51.698;-0.292;2023-02-28T08:58:27;0.95;;;0.22;;
76903;SDS011;65865;51.698;-0.292;2023-02-28T09:00:55;0.82;;;0.30;;
76903;SDS011;65865;51.698;-0.292;2023-02-28T09:03:21;0.95;;;0.30;;
76903;SDS011;65865;51.698;-0.292;2023-02-28T09:06:05;0.60;;;0.30;;
76903;SDS011;65865;51.698;-0.292;2023-02-28T09:08:37;1.20;;;0.55;;
76903;SDS011;65865;51.698;-0.292;2023-02-28T09:11:04;1.13;;;0.32;;
76903;SDS011;65865;51.698;-0.292;2023-02-28T09:13:30;1.48;;;0.40;;
76903;SDS011;65865;51.698;-0.292;2023-02-28T09:15:57;1.35;;;0.50;;
76903;SDS011;65865;51.698;-0.292;2023-02-28T09:18:27;2.03;;;0.40;;
76903;SDS011;65865;51.698;-0.292;2023-02-28T09:20:53;1.30;;;0.30;;
76903;SDS011;65865;51.698;-0.292;2023-02-28T09:23:19;1.23;;;0.40;;
76903;SDS011;65865;51.698;-0.292;2023-02-28T09:25:46;1.75;;;0.47;;
76903;SDS011;65865;51.698;-0.292;2023-02-28T09:28:13;1.50;;;0.30;;
76903;SDS011;65865;51.698;-0.292;2023-02-28T09:30:43;1.42;;;0.40;;
76903;SDS011;65865;51.698;-0.292;2023-02-28T09:33:10;1.60;;;0.40;;
76903;SDS011;65865;51.698;-0.292;2023-02-28T09:35:37;0.88;;;0.30;;
76903;SDS011;65865;51.698;-0.292;2023-02-28T09:38:03;1.08;;;0.30;;
76903;SDS011;65865;51.698;-0.292;2023-02-28T09:40:29;0.63;;;0.20;;
76903;SDS011;65865;51.698;-0.292;2023-02-28T09:42:56;1.30;;;0.30;;
76903;SDS011;65865;51.698;-0.292;2023-02-28T09:45:33;1.27;;;0.20;;
76903;SDS011;65865;51.698;-0.292;2023-02-28T09:48:02;1.25;;;0.30;;
76903;SDS011;65865;51.698;-0.292;2023-02-28T09:50:31;2.28;;;0.32;;
76903;SDS011;65865;51.698;-0.292;2023-02-28T09:52:58;0.75;;;0.22;;
76903;SDS011;65865;51.698;-0.292;2023-02-28T09:55:31;1.55;;;0.30;;
76903;SDS011;65865;51.698;-0.292;2023-02-28T09:58:28;0.90;;;0.30;;
76903;SDS011;65865;51.698;-0.292;2023-02-28T10:01:01;2.13;;;0.30;;
76903;SDS011;65865;51.698;-0.292;2023-02-28T10:03:38;1.08;;;0.30;;
76903;SDS011;65865;51.698;-0.292;2023-02-28T10:06:13;0.68;;;0.20;;
76903;SDS011;65865;51.698;-0.292;2023-02-28T10:08:42;0.60;;;0.22;;
76903;SDS011;65865;51.698;-0.292;2023-02-28T10:11:12;1.10;;;0.32;;
76903;SDS011;65865;51.698;-0.292;2023-02-28T10:13:57;0.68;;;0.28;;
76903;SDS011;65865;51.698;-0.292;2023-02-28T10:16:37;1.08;;;0.40;;
76903;SDS011;65865;51.698;-0.292;2023-02-28T10:21:42;0.80;;;0.30;;
76903;SDS011;65865;51.698;-0.292;2023-02-28T10:26:41;0.55;;;0.20;;
76903;SDS011;65865;51.698;-0.292;2023-02-28T10:29:09;1.15;;;0.30;;
76903;SDS011;65865;51.698;-0.292;2023-02-28T10:31:35;2.35;;;0.30;;
76903;SDS011;65865;51.698;-0.292;2023-02-28T10:34:02;7.90;;;0.40;;
76903;SDS011;65865;51.698;-0.292;2023-02-28T10:36:29;2.85;;;0.28;;
76903;SDS011;65865;51.698;-0.292;2023-02-28T10:38:55;0.82;;;0.32;;
76903;SDS011;65865;51.698;-0.292;2023-02-28T10:41:28;1.23;;;0.30;;
76903;SDS011;65865;51.698;-0.292;2023-02-28T10:46:40;1.95;;;0.20;;
76903;SDS011;65865;51.698;-0.292;2023-02-28T10:49:17;2.63;;;0.45;;
76903;SDS011;65865;51.698;-0.292;2023-02-28T10:51:45;1.58;;;0.40;;
76903;SDS011;65865;51.698;-0.292;2023-02-28T10:54:18;0.65;;;0.30;;
76903;SDS011;65865;51.698;-0.292;2023-02-28T10:56:44;0.68;;;0.20;;
76903;SDS011;65865;51.698;-0.292;2023-02-28T10:59:30;1.17;;;0.40;;
76903;SDS011;65865;51.698;-0.292;2023-02-28T11:01:56;2.15;;;0.40;;
76903;SDS011;65865;51.698;-0.292;2023-02-28T11:07:05;2.92;;;0.90;;
76903;SDS011;65865;51.698;-0.292;2023-02-28T11:09:35;2.05;;;0.88;;
76903;SDS011;65865;51.698;-0.292;2023-02-28T11:12:04;3.10;;;0.88;;
76903;SDS011;65865;51.698;-0.292;2023-02-28T11:14:34;1.90;;;0.82;;
76903;SDS011;65865;51.698;-0.292;2023-02-28T11:17:23;2.60;;;0.95;;
76903;SDS011;65865;51.698;-0.292;2023-02-28T11:22:17;3.25;;;1.30;;
76903;SDS011;65865;51.698;-0.292;2023-02-28T11:24:44;2.58;;;1.35;;
76903;SDS011;65865;51.698;-0.292;2023-02-28T11:27:40;8.77;;;1.50;;
76903;SDS011;65865;51.698;-0.292;2023-02-28T11:30:22;3.53;;;1.10;;
76903;SDS011;65865;51.698;-0.292;2023-02-28T11:32:49;3.78;;;1.35;;
76903;SDS011;65865;51.698;-0.292;2023-02-28T11:35:35;2.60;;;1.00;;
76903;SDS011;65865;51.698;-0.292;2023-02-28T11:38:02;3.90;;;1.50;;
76903;SDS011;65865;51.698;-0.292;2023-02-28T11:40:30;3.63;;;1.48;;
76903;SDS011;65865;51.698;-0.292;2023-02-28T11:45:49;2.35;;;0.95;;
76903;SDS011;65865;51.698;-0.292;2023-02-28T11:48:22;1.92;;;1.00;;
76903;SDS011;65865;51.698;-0.292;2023-02-28T11:55:49;2.28;;;1.00;;
76903;SDS011;65865;51.698;-0.292;2023-02-28T11:58:26;2.33;;;1.25;;
76903;SDS011;65865;51.698;-0.292;2023-02-28T12:01:18;4.10;;;1.10;;
76903;SDS011;65865;51.698;-0.292;2023-02-28T12:06:45;1.90;;;0.80;;
76903;SDS011;65865;51.698;-0.292;2023-02-28T12:27:26;2.38;;;0.68;;
76903;SDS011;65865;51.698;-0.292;2023-02-28T12:30:04;1.98;;;0.75;;
76903;SDS011;65865;51.698;-0.292;2023-02-28T12:35:04;2.75;;;0.63;;
76903;SDS011;65865;51.698;-0.292;2023-02-28T12:40:23;2.50;;;0.57;;
76903;SDS011;65865;51.698;-0.292;2023-02-28T12:42:51;2.38;;;0.82;;
76903;SDS011;65865;51.698;-0.292;2023-02-28T12:45:19;1.38;;;0.52;;
76903;SDS011;65865;51.698;-0.292;2023-02-28T12:47:47;1.48;;;0.40;;
76903;SDS011;65865;51.698;-0.292;2023-02-28T12:50:17;1.75;;;0.50;;
76903;SDS011;65865;51.698;-0.292;2023-02-28T12:55:25;2.45;;;0.60;;
76903;SDS011;65865;51.698;-0.292;2023-02-28T13:00:23;1.85;;;0.73;;
76903;SDS011;65865;51.698;-0.292;2023-02-28T13:10:41;2.50;;;0.65;;
76903;SDS011;65865;51.698;-0.292;2023-02-28T13:13:13;2.20;;;0.90;;
76903;SDS011;65865;51.698;-0.292;2023-02-28T13:15:39;1.27;;;0.60;;
76903;SDS011;65865;51.698;-0.292;2023-02-28T13:18:24;1.75;;;0.50;;
76903;SDS011;65865;51.698;-0.292;2023-02-28T13:20:53;2.78;;;0.60;;
76903;SDS011;65865;51.698;-0.292;2023-02-28T13:26:03;0.50;;;0.20;;
76903;SDS011;65865;51.698;-0.292;2023-02-28T13:31:14;1.65;;;0.40;;
76903;SDS011;65865;51.698;-0.292;2023-02-28T13:38:53;1.20;;;0.30;;
76903;SDS011;65865;51.698;-0.292;2023-02-28T13:49:19;1.35;;;0.40;;
76903;SDS011;65865;51.698;-0.292;2023-02-28T13:51:46;1.35;;;0.30;;
76903;SDS011;65865;51.698;-0.292;2023-02-28T13:56:45;1.33;;;0.30;;
76903;SDS011;65865;51.698;-0.292;2023-02-28T13:59:16;1.02;;;0.30;;
76903;SDS011;65865;51.698;-0.292;2023-02-28T14:01:55;1.67;;;0.45;;
76903;SDS011;65865;51.698;-0.292;2023-02-28T14:06:53;0.68;;;0.20;;
76903;SDS011;65865;51.698;-0.292;2023-02-28T14:09:39;1.58;;;0.35;;
76903;SDS011;65865;51.698;-0.292;2023-02-28T14:17:17;1.30;;;0.30;;
76903;SDS011;65865;51.698;-0.292;2023-02-28T14:19:45;0.63;;;0.22;;
76903;SDS011;65865;51.698;-0.292;2023-02-28T14:24:51;0.38;;;0.20;;
76903;SDS011;65865;51.698;-0.292;2023-02-28T14:27:26;0.88;;;0.20;;
76903;SDS011;65865;51.698;-0.292;2023-02-28T14:37:29;1.08;;;0.30;;
76903;SDS011;65865;51.698;-0.292;2023-02-28T14:39:57;0.88;;;0.20;;
76903;SDS011;65865;51.698;-0.292;2023-02-28T14:42:28;0.85;;;0.20;;
76903;SDS011;65865;51.698;-0.292;2023-02-28T14:44:54;0.70;;;0.20;;
76903;SDS011;65865;51.698;-0.292;2023-02-28T14:47:25;0.30;;;0.20;;
76903;SDS011;65865;51.698;-0.292;2023-02-28T14:49:52;0.98;;;0.45;;
76903;SDS011;65865;51.698;-0.292;2023-02-28T14:52:20;0.65;;;0.20;;
76903;SDS011;65865;51.698;-0.292;2023-02-28T14:54:51;0.40;;;0.30;;
76903;SDS011;65865;51.698;-0.292;2023-02-28T14:57:22;0.70;;;0.20;;
76903;SDS011;65865;51.698;-0.292;2023-02-28T14:59:56;0.65;;;0.20;;
76903;SDS011;65865;51.698;-0.292;2023-02-28T15:02:23;0.85;;;0.30;;
76903;SDS011;65865;51.698;-0.292;2023-02-28T15:05:22;0.73;;;0.20;;
76903;SDS011;65865;51.698;-0.292;2023-02-28T15:07:45;0.65;;;0.20;;
76903;SDS011;65865;51.698;-0.292;2023-02-28T15:10:24;0.47;;;0.20;;
76903;SDS011;65865;51.698;-0.292;2023-02-28T15:15:17;0.57;;;0.10;;
76903;SDS011;65865;51.698;-0.292;2023-02-28T15:17:48;0.93;;;0.20;;
76903;SDS011;65865;51.698;-0.292;2023-02-28T15:20:15;0.30;;;0.10;;
76903;SDS011;65865;51.698;-0.292;2023-02-28T15:22:43;0.60;;;0.20;;
76903;SDS011;65865;51.698;-0.292;2023-02-28T15:25:10;0.60;;;0.20;;
76903;SDS011;65865;51.698;-0.292;2023-02-28T15:27:41;1.08;;;0.20;;
76903;SDS011;65865;51.698;-0.292;2023-02-28T15:30:15;1.17;;;0.30;;
76903;SDS011;65865;51.698;-0.292;2023-02-28T15:32:42;0.25;;;0.20;;
76903;SDS011;65865;51.698;-0.292;2023-02-28T15:42:38;0.40;;;0.20;;
76903;SDS011;65865;51.698;-0.292;2023-02-28T15:45:04;0.63;;;0.20;;
76903;SDS011;65865;51.698;-0.292;2023-02-28T15:47:31;0.20;;;0.10;;
76903;SDS011;65865;51.698;-0.292;2023-02-28T15:54:56;0.30;;;0.10;;
76903;SDS011;65865;51.698;-0.292;2023-02-28T15:57:24;0.13;;;0.10;;
76903;SDS011;65865;51.698;-0.292;2023-02-28T15:59:54;0.45;;;0.10;;
76903;SDS011;65865;51.698;-0.292;2023-02-28T16:02:27;0.10;;;0.10;;
76903;SDS011;65865;51.698;-0.292;2023-02-28T16:07:21;0.50;;;0.20;;
76903;SDS011;65865;51.698;-0.292;2023-02-28T16:09:47;0.15;;;0.10;;
76903;SDS011;65865;51.698;-0.292;2023-02-28T16:12:13;0.52;;;0.20;;
76903;SDS011;65865;51.698;-0.292;2023-02-28T16:14:39;0.88;;;0.17;;
76903;SDS011;65865;51.698;-0.292;2023-02-28T16:17:06;1.35;;;0.30;;
76903;SDS011;65865;51.698;-0.292;2023-02-28T16:19:34;0.85;;;0.25;;
76903;SDS011;65865;51.698;-0.292;2023-02-28T16:22:00;0.47;;;0.30;;
76903;SDS011;65865;51.698;-0.292;2023-02-28T16:24:26;1.02;;;0.20;;
76903;SDS011;65865;51.698;-0.292;2023-02-28T16:26:53;1.30;;;0.20;;
76903;SDS011;65865;51.698;-0.292;2023-02-28T16:29:28;1.05;;;0.25;;
76903;SDS011;65865;51.698;-0.292;2023-02-28T16:31:55;0.30;;;0.10;;
76903;SDS011;65865;51.698;-0.292;2023-02-28T16:34:21;0.50;;;0.10;;
76903;SDS011;65865;51.698;-0.292;2023-02-28T16:36:48;0.43;;;0.20;;
76903;SDS011;65865;51.698;-0.292;2023-02-28T16:39:14;0.77;;;0.13;;
76903;SDS011;65865;51.698;-0.292;2023-02-28T16:41:44;0.50;;;0.20;;
76903;SDS011;65865;51.698;-0.292;2023-02-28T16:44:27;1.30;;;0.20;;
76903;SDS011;65865;51.698;-0.292;2023-02-28T16:46:54;2.13;;;0.20;;
76903;SDS011;65865;51.698;-0.292;2023-02-28T16:49:20;0.38;;;0.10;;
76903;SDS011;65865;51.698;-0.292;2023-02-28T16:51:46;0.57;;;0.22;;
76903;SDS011;65865;51.698;-0.292;2023-02-28T16:54:12;0.95;;;0.10;;
76903;SDS011;65865;51.698;-0.292;2023-02-28T16:56:43;1.25;;;0.10;;
76903;SDS011;65865;51.698;-0.292;2023-02-28T16:59:10;0.95;;;0.10;;
76903;SDS011;65865;51.698;-0.292;2023-02-28T17:01:36;0.38;;;0.15;;
76903;SDS011;65865;51.698;-0.292;2023-02-28T17:04:03;0.60;;;0.20;;
76903;SDS011;65865;51.698;-0.292;2023-02-28T17:06:29;0.57;;;0.30;;